sensor_id;sensor_type;location;lat;lon;timestamp;pressure;altitude;pressure_sealevel;temperature;humidity
29909;BME280;36247;51.952;6.146;2023-05-03T00:00:01;102839.88;;;6.30;100.00
29909;BME280;36247;51.952;6.146;2023-05-03T00:02:27;102844.44;;;6.19;100.00
29909;BME280;36247;51.952;6.146;2023-05-03T00:04:52;102847.91;;;6.18;100.00
29909;BME280;36247;51.952;6.146;2023-05-03T00:07:19;102845.59;;;6.23;100.00
29909;BME280;36247;51.952;6.146;2023-05-03T00:09:44;102832.91;;;6.30;100.00
29909;BME280;36247;51.952;6.146;2023-05-03T00:12:10;102838.34;;;6.33;100.00
29909;BME280;36247;51.952;6.146;2023-05-03T00:14:36;102847.91;;;6.18;100.00
29909;BME280;36247;51.952;6.146;2023-05-03T00:17:01;102844.06;;;6.13;100.00
29909;BME280;36247;51.952;6.146;2023-05-03T00:19:27;102842.97;;;6.09;100.00
29909;BME280;36247;51.952;6.146;2023-05-03T00:21:57;102844.44;;;6.19;100.00
29909;BME280;36247;51.952;6.146;2023-05-03T00:24:23;102845.16;;;6.16;100.00
29909;BME280;36247;51.952;6.146;2023-05-03T00:26:48;102845.16;;;6.16;100.00
29909;BME280;36247;51.952;6.146;2023-05-03T00:29:14;102838.13;;;6.02;100.00
29909;BME280;36247;51.952;6.146;2023-05-03T00:31:42;102836.91;;;5.97;100.00
29909;BME280;36247;51.952;6.146;2023-05-03T00:34:09;102833.63;;;5.88;100.00
29909;BME280;36247;51.952;6.146;2023-05-03T00:36:35;102830.72;;;5.83;100.00
29909;BME280;36247;51.952;6.146;2023-05-03T00:39:00;102830.00;;;5.86;100.00
29909;BME280;36247;51.952;6.146;2023-05-03T00:41:26;102838.31;;;5.78;100.00
29909;BME280;36247;51.952;6.146;2023-05-03T00:43:51;102842.56;;;5.76;100.00
29909;BME280;36247;51.952;6.146;2023-05-03T00:46:17;102835.69;;;5.78;100.00
29909;BME280;36247;51.952;6.146;2023-05-03T00:48:47;102837.91;;;5.72;100.00
29909;BME280;36247;51.952;6.146;2023-05-03T00:51:14;102840.63;;;5.87;100.00
29909;BME280;36247;51.952;6.146;2023-05-03T00:53:41;102831.22;;;5.91;100.00
29909;BME280;36247;51.952;6.146;2023-05-03T00:56:09;102829.91;;;5.84;100.00
29909;BME280;36247;51.952;6.146;2023-05-03T00:58:35;102841.13;;;5.81;100.00
29909;BME280;36247;51.952;6.146;2023-05-03T01:01:05;102839.09;;;5.77;100.00
29909;BME280;36247;51.952;6.146;2023-05-03T01:03:35;102842.38;;;5.73;100.00
29909;BME280;36247;51.952;6.146;2023-05-03T01:08:43;102831.31;;;5.65;100.00
29909;BME280;36247;51.952;6.146;2023-05-03T01:11:26;102833.16;;;5.53;100.00
29909;BME280;36247;51.952;6.146;2023-05-03T01:14:22;102840.03;;;5.64;100.00
29909;BME280;36247;51.952;6.146;2023-05-03T01:16:57;102824.56;;;5.69;100.00
29909;BME280;36247;51.952;6.146;2023-05-03T01:19:28;102828.28;;;5.73;100.00
29909;BME280;36247;51.952;6.146;2023-05-03T01:25:08;102839.84;;;5.61;100.00
29909;BME280;36247;51.952;6.146;2023-05-03T01:27:35;102831.31;;;5.52;100.00
29909;BME280;36247;51.952;6.146;2023-05-03T01:30:03;102835.28;;;5.45;100.00
29909;BME280;36247;51.952;6.146;2023-05-03T01:35:35;102843.94;;;5.44;100.00
29909;BME280;36247;51.952;6.146;2023-05-03T01:38:06;102847.63;;;5.46;100.00
29909;BME280;36247;51.952;6.146;2023-05-03T01:40:37;102848.81;;;5.38;100.00
29909;BME280;36247;51.952;6.146;2023-05-03T01:43:06;102855.06;;;5.27;100.00
29909;BME280;36247;51.952;6.146;2023-05-03T01:45:32;102850.41;;;5.23;100.00
29909;BME280;36247;51.952;6.146;2023-05-03T01:47:58;102853.66;;;5.32;100.00
29909;BME280;36247;51.952;6.146;2023-05-03T01:50:23;102850.44;;;5.36;100.00
29909;BME280;36247;51.952;6.146;2023-05-03T01:52:49;102859.28;;;5.25;100.00
29909;BME280;36247;51.952;6.146;2023-05-03T01:55:17;102852.56;;;5.28;100.00
29909;BME280;36247;51.952;6.146;2023-05-03T01:57:43;102855.16;;;5.15;100.00
29909;BME280;36247;51.952;6.146;2023-05-03T02:00:09;102855.16;;;5.15;100.00
29909;BME280;36247;51.952;6.146;2023-05-03T02:02:37;102857.16;;;5.19;100.00
29909;BME280;36247;51.952;6.146;2023-05-03T02:05:05;102855.41;;;5.06;100.00
29909;BME280;36247;51.952;6.146;2023-05-03T02:07:32;102853.59;;;5.05;100.00
29909;BME280;36247;51.952;6.146;2023-05-03T02:09:57;102856.22;;;5.05;100.00
29909;BME280;36247;51.952;6.146;2023-05-03T02:12:23;102843.78;;;5.03;100.00
29909;BME280;36247;51.952;6.146;2023-05-03T02:14:49;102847.28;;;4.90;100.00
29909;BME280;36247;51.952;6.146;2023-05-03T02:17:15;102843.34;;;4.97;100.00
29909;BME280;36247;51.952;6.146;2023-05-03T02:19:43;102843.34;;;4.97;100.00
29909;BME280;36247;51.952;6.146;2023-05-03T02:22:09;102843.91;;;4.79;100.00
29909;BME280;36247;51.952;6.146;2023-05-03T02:24:34;102853.72;;;4.82;100.00
29909;BME280;36247;51.952;6.146;2023-05-03T02:27:02;102853.91;;;4.85;100.00
29909;BME280;36247;51.952;6.146;2023-05-03T02:29:30;102848.47;;;4.82;100.00
29909;BME280;36247;51.952;6.146;2023-05-03T02:31:57;102843.69;;;4.76;100.00
29909;BME280;36247;51.952;6.146;2023-05-03T02:34:23;102847.25;;;4.76;100.00
29909;BME280;36247;51.952;6.146;2023-05-03T02:36:50;102841.63;;;4.84;100.00
29909;BME280;36247;51.952;6.146;2023-05-03T02:39:17;102847.13;;;4.75;100.00
29909;BME280;36247;51.952;6.146;2023-05-03T02:41:43;102845.94;;;4.58;100.00
29909;BME280;36247;51.952;6.146;2023-05-03T02:44:09;102839.63;;;4.68;100.00
29909;BME280;36247;51.952;6.146;2023-05-03T02:46:36;102841.34;;;4.67;100.00
29909;BME280;36247;51.952;6.146;2023-05-03T02:49:01;102845.25;;;4.61;100.00
29909;BME280;36247;51.952;6.146;2023-05-03T02:51:28;102848.66;;;4.59;100.00
29909;BME280;36247;51.952;6.146;2023-05-03T02:53:53;102837.06;;;4.56;100.00
29909;BME280;36247;51.952;6.146;2023-05-03T02:56:19;102839.72;;;4.44;100.00
29909;BME280;36247;51.952;6.146;2023-05-03T02:58:45;102837.63;;;4.52;100.00
29909;BME280;36247;51.952;6.146;2023-05-03T03:01:11;102829.91;;;4.41;100.00
29909;BME280;36247;51.952;6.146;2023-05-03T03:03:36;102833.59;;;4.32;100.00
29909;BME280;36247;51.952;6.146;2023-05-03T03:06:02;102829.00;;;4.41;100.00
29909;BME280;36247;51.952;6.146;2023-05-03T03:08:27;102822.41;;;4.34;100.00
29909;BME280;36247;51.952;6.146;2023-05-03T03:10:57;102818.22;;;4.24;100.00
29909;BME280;36247;51.952;6.146;2023-05-03T03:13:23;102816.03;;;4.31;100.00
29909;BME280;36247;51.952;6.146;2023-05-03T03:15:48;102814.88;;;4.39;100.00
29909;BME280;36247;51.952;6.146;2023-05-03T03:18:14;102813.94;;;4.38;100.00
29909;BME280;36247;51.952;6.146;2023-05-03T03:20:40;102803.44;;;4.38;100.00
29909;BME280;36247;51.952;6.146;2023-05-03T03:23:05;102800.19;;;4.29;100.00
29909;BME280;36247;51.952;6.146;2023-05-03T03:25:31;102796.53;;;4.27;100.00
29909;BME280;36247;51.952;6.146;2023-05-03T03:27:57;102796.97;;;4.33;100.00
29909;BME280;36247;51.952;6.146;2023-05-03T03:30:24;102798.34;;;4.28;100.00
29909;BME280;36247;51.952;6.146;2023-05-03T03:32:59;102789.16;;;4.21;100.00
29909;BME280;36247;51.952;6.146;2023-05-03T03:35:32;102790.41;;;4.15;100.00
29909;BME280;36247;51.952;6.146;2023-05-03T03:37:58;102790.63;;;4.18;100.00
29909;BME280;36247;51.952;6.146;2023-05-03T03:40:24;102793.09;;;4.28;100.00
29909;BME280;36247;51.952;6.146;2023-05-03T03:42:52;102799.03;;;4.37;100.00
29909;BME280;36247;51.952;6.146;2023-05-03T03:45:17;102801.19;;;4.31;100.00
29909;BME280;36247;51.952;6.146;2023-05-03T03:47:43;102806.81;;;4.24;100.00
29909;BME280;36247;51.952;6.146;2023-05-03T03:50:09;102807.19;;;4.17;100.00
29909;BME280;36247;51.952;6.146;2023-05-03T03:52:35;102816.25;;;4.34;100.00
29909;BME280;36247;51.952;6.146;2023-05-03T03:55:01;102810.78;;;4.31;100.00
29909;BME280;36247;51.952;6.146;2023-05-03T03:57:27;102807.84;;;4.26;100.00
29909;BME280;36247;51.952;6.146;2023-05-03T03:59:56;102813.03;;;4.38;100.00
29909;BME280;36247;51.952;6.146;2023-05-03T04:02:22;102818.44;;;4.28;100.00
29909;BME280;36247;51.952;6.146;2023-05-03T04:04:49;102817.13;;;4.09;100.00
29909;BME280;36247;51.952;6.146;2023-05-03T04:07:17;102830.28;;;3.97;100.00
29909;BME280;36247;51.952;6.146;2023-05-03T04:09:42;102831.81;;;4.07;100.00
29909;BME280;36247;51.952;6.146;2023-05-03T04:12:09;102824.63;;;4.16;100.00
29909;BME280;36247;51.952;6.146;2023-05-03T04:14:34;102828.41;;;4.08;100.00
29909;BME280;36247;51.952;6.146;2023-05-03T04:17:00;102825.69;;;4.06;100.00
29909;BME280;36247;51.952;6.146;2023-05-03T04:19:26;102831.03;;;4.08;100.00
29909;BME280;36247;51.952;6.146;2023-05-03T04:21:52;102830.34;;;4.11;100.00
29909;BME280;36247;51.952;6.146;2023-05-03T04:24:19;102831.03;;;4.08;100.00
29909;BME280;36247;51.952;6.146;2023-05-03T04:26:45;102833.22;;;4.02;100.00
29909;BME280;36247;51.952;6.146;2023-05-03T04:29:17;102830.50;;;4.00;100.00
29909;BME280;36247;51.952;6.146;2023-05-03T04:31:44;102834.00;;;4.01;100.00
29909;BME280;36247;51.952;6.146;2023-05-03T04:34:13;102835.03;;;4.03;100.00
29909;BME280;36247;51.952;6.146;2023-05-03T04:36:42;102838.00;;;4.08;100.00
29909;BME280;36247;51.952;6.146;2023-05-03T04:39:10;102845.06;;;4.09;100.00
29909;BME280;36247;51.952;6.146;2023-05-03T04:41:38;102850.50;;;4.23;100.00
29909;BME280;36247;51.952;6.146;2023-05-03T04:44:06;102860.88;;;4.22;100.00
29909;BME280;36247;51.952;6.146;2023-05-03T04:46:32;102852.09;;;4.21;100.00
29909;BME280;36247;51.952;6.146;2023-05-03T04:48:58;102863.84;;;4.15;100.00
29909;BME280;36247;51.952;6.146;2023-05-03T04:51:23;102854.91;;;4.36;100.00
29909;BME280;36247;51.952;6.146;2023-05-03T04:53:51;102864.66;;;4.26;100.00
29909;BME280;36247;51.952;6.146;2023-05-03T04:56:19;102863.91;;;4.40;100.00
29909;BME280;36247;51.952;6.146;2023-05-03T04:58:57;102871.66;;;4.50;100.00
29909;BME280;36247;51.952;6.146;2023-05-03T05:01:22;102870.44;;;4.33;100.00
29909;BME280;36247;51.952;6.146;2023-05-03T05:03:54;102872.06;;;4.56;100.00
29909;BME280;36247;51.952;6.146;2023-05-03T05:06:26;102887.22;;;4.35;100.00
29909;BME280;36247;51.952;6.146;2023-05-03T05:08:52;102888.69;;;4.44;100.00
29909;BME280;36247;51.952;6.146;2023-05-03T05:11:18;102891.25;;;4.67;100.00
29909;BME280;36247;51.952;6.146;2023-05-03T05:13:45;102897.13;;;4.76;100.00
29909;BME280;36247;51.952;6.146;2023-05-03T05:16:12;102891.00;;;4.64;100.00
29909;BME280;36247;51.952;6.146;2023-05-03T05:18:41;102897.84;;;4.62;100.00
29909;BME280;36247;51.952;6.146;2023-05-03T05:21:09;102895.44;;;4.65;100.00
29909;BME280;36247;51.952;6.146;2023-05-03T05:23:37;102899.03;;;5.04;100.00
29909;BME280;36247;51.952;6.146;2023-05-03T05:26:03;102898.78;;;4.88;100.00
29909;BME280;36247;51.952;6.146;2023-05-03T05:28:30;102896.81;;;4.97;100.00
29909;BME280;36247;51.952;6.146;2023-05-03T05:30:58;102904.38;;;5.31;100.00
29909;BME280;36247;51.952;6.146;2023-05-03T05:33:24;102909.03;;;5.22;100.00
29909;BME280;36247;51.952;6.146;2023-05-03T05:35:52;102910.06;;;5.37;100.00
29909;BME280;36247;51.952;6.146;2023-05-03T05:38:20;102908.38;;;5.51;100.00
29909;BME280;36247;51.952;6.146;2023-05-03T05:40:45;102906.09;;;5.69;100.00
29909;BME280;36247;51.952;6.146;2023-05-03T05:43:11;102910.13;;;5.77;100.00
29909;BME280;36247;51.952;6.146;2023-05-03T05:45:39;102910.50;;;5.70;100.00
29909;BME280;36247;51.952;6.146;2023-05-03T05:48:05;102913.78;;;5.66;100.00
29909;BME280;36247;51.952;6.146;2023-05-03T05:50:33;102915.50;;;5.92;100.00
29909;BME280;36247;51.952;6.146;2023-05-03T05:53:05;102913.28;;;5.98;100.00
29909;BME280;36247;51.952;6.146;2023-05-03T05:55:36;102907.53;;;6.17;100.00
29909;BME280;36247;51.952;6.146;2023-05-03T05:58:02;102905.81;;;6.18;100.00
29909;BME280;36247;51.952;6.146;2023-05-03T06:00:36;102907.78;;;6.49;100.00
29909;BME280;36247;51.952;6.146;2023-05-03T06:03:02;102912.72;;;6.58;100.00
29909;BME280;36247;51.952;6.146;2023-05-03T06:05:27;102906.72;;;6.32;100.00
29909;BME280;36247;51.952;6.146;2023-05-03T06:07:53;102904.63;;;6.55;100.00
29909;BME280;36247;51.952;6.146;2023-05-03T06:10:18;102905.44;;;6.53;100.00
29909;BME280;36247;51.952;6.146;2023-05-03T06:12:48;102902.94;;;6.70;100.00
29909;BME280;36247;51.952;6.146;2023-05-03T06:15:22;102925.28;;;6.62;100.00
29909;BME280;36247;51.952;6.146;2023-05-03T06:17:47;102909.94;;;6.98;100.00
29909;BME280;36247;51.952;6.146;2023-05-03T06:20:13;102902.88;;;7.12;100.00
29909;BME280;36247;51.952;6.146;2023-05-03T06:22:40;102903.31;;;7.04;100.00
29909;BME280;36247;51.952;6.146;2023-05-03T06:25:08;102900.16;;;7.10;100.00
29909;BME280;36247;51.952;6.146;2023-05-03T06:27:36;102895.06;;;7.13;100.00
29909;BME280;36247;51.952;6.146;2023-05-03T06:30:03;102899.19;;;7.38;100.00
29909;BME280;36247;51.952;6.146;2023-05-03T06:32:28;102898.28;;;7.52;100.00
29909;BME280;36247;51.952;6.146;2023-05-03T06:34:55;102894.19;;;7.72;100.00
29909;BME280;36247;51.952;6.146;2023-05-03T06:37:24;102888.53;;;7.81;100.00
29909;BME280;36247;51.952;6.146;2023-05-03T06:39:52;102895.75;;;7.84;100.00
29909;BME280;36247;51.952;6.146;2023-05-03T06:42:18;102890.97;;;7.93;100.00
29909;BME280;36247;51.952;6.146;2023-05-03T06:44:44;102884.81;;;8.09;100.00
29909;BME280;36247;51.952;6.146;2023-05-03T06:47:12;102886.78;;;8.28;100.00
29909;BME280;36247;51.952;6.146;2023-05-03T06:49:37;102890.19;;;8.42;100.00
29909;BME280;36247;51.952;6.146;2023-05-03T06:52:03;102891.56;;;8.50;100.00
29909;BME280;36247;51.952;6.146;2023-05-03T06:54:28;102888.19;;;8.53;100.00
29909;BME280;36247;51.952;6.146;2023-05-03T06:56:54;102888.94;;;8.67;100.00
29909;BME280;36247;51.952;6.146;2023-05-03T06:59:22;102883.81;;;9.03;100.00
29909;BME280;36247;51.952;6.146;2023-05-03T07:01:49;102882.53;;;8.94;100.00
29909;BME280;36247;51.952;6.146;2023-05-03T07:04:15;102875.22;;;9.07;100.00
29909;BME280;36247;51.952;6.146;2023-05-03T07:06:42;102869.59;;;9.17;100.00
29909;BME280;36247;51.952;6.146;2023-05-03T07:09:08;102875.72;;;8.99;100.00
29909;BME280;36247;51.952;6.146;2023-05-03T07:11:35;102877.06;;;9.42;100.00
29909;BME280;36247;51.952;6.146;2023-05-03T07:14:03;102873.50;;;8.91;100.00
29909;BME280;36247;51.952;6.146;2023-05-03T07:16:29;102873.25;;;9.37;100.00
29909;BME280;36247;51.952;6.146;2023-05-03T07:18:54;102879.09;;;9.13;100.00
29909;BME280;36247;51.952;6.146;2023-05-03T07:21:22;102869.34;;;9.47;100.00
29909;BME280;36247;51.952;6.146;2023-05-03T07:23:48;102869.78;;;9.38;100.00
29909;BME280;36247;51.952;6.146;2023-05-03T07:26:13;102863.06;;;9.10;100.00
29909;BME280;36247;51.952;6.146;2023-05-03T07:28:40;102866.13;;;9.52;100.00
29909;BME280;36247;51.952;6.146;2023-05-03T07:31:05;102864.03;;;9.29;100.00
29909;BME280;36247;51.952;6.146;2023-05-03T07:33:33;102868.00;;;9.91;100.00
29909;BME280;36247;51.952;6.146;2023-05-03T07:36:02;102873.00;;;10.03;100.00
29909;BME280;36247;51.952;6.146;2023-05-03T07:38:28;102867.53;;;10.18;100.00
29909;BME280;36247;51.952;6.146;2023-05-03T07:40:54;102864.66;;;10.13;100.00
29909;BME280;36247;51.952;6.146;2023-05-03T07:43:19;102866.38;;;10.31;100.00
29909;BME280;36247;51.952;6.146;2023-05-03T07:45:48;102849.59;;;10.30;100.00
29909;BME280;36247;51.952;6.146;2023-05-03T07:48:14;102842.25;;;10.43;100.00
29909;BME280;36247;51.952;6.146;2023-05-03T07:50:43;102844.34;;;10.50;100.00
29909;BME280;36247;51.952;6.146;2023-05-03T07:53:11;102844.91;;;10.24;100.00
29909;BME280;36247;51.952;6.146;2023-05-03T07:55:37;102835.91;;;10.39;100.00
29909;BME280;36247;51.952;6.146;2023-05-03T07:58:03;102835.25;;;10.84;100.00
29909;BME280;36247;51.952;6.146;2023-05-03T08:00:30;102831.50;;;10.79;100.00
29909;BME280;36247;51.952;6.146;2023-05-03T08:02:57;102839.75;;;10.65;100.00
29909;BME280;36247;51.952;6.146;2023-05-03T08:05:22;102809.69;;;10.84;100.00
29909;BME280;36247;51.952;6.146;2023-05-03T08:07:48;102816.34;;;10.96;100.00
29909;BME280;36247;51.952;6.146;2023-05-03T08:10:14;102806.88;;;11.43;100.00
29909;BME280;36247;51.952;6.146;2023-05-03T08:12:40;102812.69;;;11.34;100.00
29909;BME280;36247;51.952;6.146;2023-05-03T08:15:06;102823.44;;;11.16;100.00
29909;BME280;36247;51.952;6.146;2023-05-03T08:17:40;102811.97;;;11.38;100.00
29909;BME280;36247;51.952;6.146;2023-05-03T08:20:07;102816.50;;;11.62;100.00
29909;BME280;36247;51.952;6.146;2023-05-03T08:22:33;102804.50;;;11.72;100.00
29909;BME280;36247;51.952;6.146;2023-05-03T08:25:05;102802.09;;;11.99;100.00
29909;BME280;36247;51.952;6.146;2023-05-03T08:27:32;102812.00;;;11.82;100.00
29909;BME280;36247;51.952;6.146;2023-05-03T08:29:58;102809.41;;;12.05;100.00
29909;BME280;36247;51.952;6.146;2023-05-03T08:32:26;102812.25;;;12.56;100.00
29909;BME280;36247;51.952;6.146;2023-05-03T08:34:53;102806.53;;;12.00;99.87
29909;BME280;36247;51.952;6.146;2023-05-03T08:37:19;102802.44;;;12.31;100.00
29909;BME280;36247;51.952;6.146;2023-05-03T08:39:45;102804.25;;;12.32;100.00
29909;BME280;36247;51.952;6.146;2023-05-03T08:42:11;102810.25;;;12.50;96.74
29909;BME280;36247;51.952;6.146;2023-05-03T08:44:46;102806.84;;;12.30;94.57
29909;BME280;36247;51.952;6.146;2023-05-03T08:47:16;102812.38;;;12.85;100.00
29909;BME280;36247;51.952;6.146;2023-05-03T08:49:43;102825.09;;;12.68;100.00
29909;BME280;36247;51.952;6.146;2023-05-03T08:52:13;102817.09;;;12.68;100.00
29909;BME280;36247;51.952;6.146;2023-05-03T08:54:40;102810.66;;;12.85;100.00
29909;BME280;36247;51.952;6.146;2023-05-03T08:57:12;102804.81;;;12.96;99.63
29909;BME280;36247;51.952;6.146;2023-05-03T08:59:51;102805.19;;;13.32;100.00
29909;BME280;36247;51.952;6.146;2023-05-03T09:02:19;102802.19;;;14.34;98.74
29909;BME280;36247;51.952;6.146;2023-05-03T09:04:45;102809.16;;;13.71;82.76
29909;BME280;36247;51.952;6.146;2023-05-03T09:07:12;102818.06;;;12.70;81.17
29909;BME280;36247;51.952;6.146;2023-05-03T09:09:37;102794.25;;;13.50;100.00
29909;BME280;36247;51.952;6.146;2023-05-03T09:12:05;102790.09;;;13.86;94.36
29909;BME280;36247;51.952;6.146;2023-05-03T09:14:40;102779.84;;;13.71;92.64
29909;BME280;36247;51.952;6.146;2023-05-03T09:17:15;102785.47;;;13.80;98.59
29909;BME280;36247;51.952;6.146;2023-05-03T09:19:50;102777.59;;;14.14;95.15
29909;BME280;36247;51.952;6.146;2023-05-03T09:22:18;102780.25;;;14.42;95.80
29909;BME280;36247;51.952;6.146;2023-05-03T09:24:51;102776.47;;;13.77;99.34
29909;BME280;36247;51.952;6.146;2023-05-03T09:27:18;102784.34;;;14.31;93.32
29909;BME280;36247;51.952;6.146;2023-05-03T09:29:49;102789.84;;;13.78;74.38
29909;BME280;36247;51.952;6.146;2023-05-03T09:32:15;102795.59;;;14.21;88.94
29909;BME280;36247;51.952;6.146;2023-05-03T09:34:43;102789.34;;;14.81;82.33
29909;BME280;36247;51.952;6.146;2023-05-03T09:37:11;102792.63;;;14.71;86.52
29909;BME280;36247;51.952;6.146;2023-05-03T09:39:40;102786.94;;;15.25;82.03
29909;BME280;36247;51.952;6.146;2023-05-03T09:42:13;102775.84;;;15.08;90.83
29909;BME280;36247;51.952;6.146;2023-05-03T09:44:45;102794.16;;;14.94;87.66
29909;BME280;36247;51.952;6.146;2023-05-03T09:47:14;102786.88;;;15.95;78.11
29909;BME280;36247;51.952;6.146;2023-05-03T09:49:40;102783.81;;;16.18;72.83
29909;BME280;36247;51.952;6.146;2023-05-03T09:52:07;102789.38;;;15.51;86.14
29909;BME280;36247;51.952;6.146;2023-05-03T09:54:33;102793.22;;;15.62;70.34
29909;BME280;36247;51.952;6.146;2023-05-03T09:57:05;102778.31;;;15.72;69.90
29909;BME280;36247;51.952;6.146;2023-05-03T09:59:32;102785.19;;;16.42;66.90
29909;BME280;36247;51.952;6.146;2023-05-03T10:02:01;102784.56;;;15.73;62.25
29909;BME280;36247;51.952;6.146;2023-05-03T10:04:37;102789.25;;;16.65;63.62
29909;BME280;36247;51.952;6.146;2023-05-03T10:07:09;102777.16;;;17.35;68.76
29909;BME280;36247;51.952;6.146;2023-05-03T10:09:45;102783.91;;;16.22;69.99
29909;BME280;36247;51.952;6.146;2023-05-03T10:12:12;102783.22;;;16.33;70.01
29909;BME280;36247;51.952;6.146;2023-05-03T10:14:42;102767.84;;;16.65;57.95
29909;BME280;36247;51.952;6.146;2023-05-03T10:17:36;102761.31;;;17.49;62.12
29909;BME280;36247;51.952;6.146;2023-05-03T10:20:27;102756.56;;;17.31;64.31
29909;BME280;36247;51.952;6.146;2023-05-03T10:25:29;102764.59;;;17.31;63.45
29909;BME280;36247;51.952;6.146;2023-05-03T10:28:02;102764.81;;;17.44;62.92
29909;BME280;36247;51.952;6.146;2023-05-03T10:30:35;102769.00;;;17.87;58.45
29909;BME280;36247;51.952;6.146;2023-05-03T10:35:49;102765.97;;;18.23;54.95
29909;BME280;36247;51.952;6.146;2023-05-03T10:38:21;102768.69;;;17.65;52.06
29909;BME280;36247;51.952;6.146;2023-05-03T10:40:48;102759.13;;;17.24;60.52
29909;BME280;36247;51.952;6.146;2023-05-03T10:45:57;102759.59;;;17.55;62.06
29909;BME280;36247;51.952;6.146;2023-05-03T10:48:23;102759.81;;;17.68;64.66
29909;BME280;36247;51.952;6.146;2023-05-03T10:50:50;102758.81;;;18.24;61.07
29909;BME280;36247;51.952;6.146;2023-05-03T10:53:37;102761.25;;;18.04;54.94
29909;BME280;36247;51.952;6.146;2023-05-03T10:56:08;102762.28;;;18.17;57.62
29909;BME280;36247;51.952;6.146;2023-05-03T10:58:44;102761.81;;;18.50;57.93
29909;BME280;36247;51.952;6.146;2023-05-03T11:01:15;102749.72;;;18.88;50.52
29909;BME280;36247;51.952;6.146;2023-05-03T11:06:35;102732.47;;;18.67;57.43
29909;BME280;36247;51.952;6.146;2023-05-03T11:09:06;102740.00;;;19.00;55.54
29909;BME280;36247;51.952;6.146;2023-05-03T11:11:34;102740.19;;;19.24;50.51
29909;BME280;36247;51.952;6.146;2023-05-03T11:14:01;102738.56;;;18.52;45.26
29909;BME280;36247;51.952;6.146;2023-05-03T11:16:27;102738.78;;;18.69;46.42
29909;BME280;36247;51.952;6.146;2023-05-03T11:18:53;102741.16;;;19.30;49.45
29909;BME280;36247;51.952;6.146;2023-05-03T11:21:19;102723.78;;;18.90;50.64
29909;BME280;36247;51.952;6.146;2023-05-03T11:23:45;102730.66;;;18.66;50.31
29909;BME280;36247;51.952;6.146;2023-05-03T11:26:12;102727.47;;;19.01;55.03
29909;BME280;36247;51.952;6.146;2023-05-03T11:28:41;102724.31;;;19.58;51.15
29909;BME280;36247;51.952;6.146;2023-05-03T11:31:08;102726.72;;;19.17;43.74
29909;BME280;36247;51.952;6.146;2023-05-03T11:33:37;102720.97;;;18.79;50.90
29909;BME280;36247;51.952;6.146;2023-05-03T11:36:05;102716.22;;;19.51;52.36
29909;BME280;36247;51.952;6.146;2023-05-03T11:38:33;102716.06;;;19.34;51.41
29909;BME280;36247;51.952;6.146;2023-05-03T11:41:00;102714.53;;;18.63;49.75
29909;BME280;36247;51.952;6.146;2023-05-03T11:43:27;102710.66;;;19.30;50.49
29909;BME280;36247;51.952;6.146;2023-05-03T11:45:56;102717.34;;;19.87;47.33
29909;BME280;36247;51.952;6.146;2023-05-03T11:48:24;102713.78;;;19.95;51.03
29909;BME280;36247;51.952;6.146;2023-05-03T11:50:54;102720.78;;;19.66;46.86
29909;BME280;36247;51.952;6.146;2023-05-03T11:53:22;102706.75;;;20.37;51.55
29909;BME280;36247;51.952;6.146;2023-05-03T11:55:53;102698.69;;;20.28;46.62
29909;BME280;36247;51.952;6.146;2023-05-03T11:58:21;102691.50;;;20.45;47.21
29909;BME280;36247;51.952;6.146;2023-05-03T12:00:50;102696.59;;;19.71;45.37
29909;BME280;36247;51.952;6.146;2023-05-03T12:03:28;102693.38;;;20.65;45.65
29909;BME280;36247;51.952;6.146;2023-05-03T12:05:57;102688.69;;;20.02;49.17
29909;BME280;36247;51.952;6.146;2023-05-03T12:08:31;102694.00;;;19.85;49.24
29909;BME280;36247;51.952;6.146;2023-05-03T12:10:59;102691.13;;;19.54;43.89
29909;BME280;36247;51.952;6.146;2023-05-03T12:13:27;102687.72;;;19.81;46.92
29909;BME280;36247;51.952;6.146;2023-05-03T12:16:00;102686.06;;;18.82;47.35
29909;BME280;36247;51.952;6.146;2023-05-03T12:18:31;102670.91;;;20.49;47.71
29909;BME280;36247;51.952;6.146;2023-05-03T12:21:10;102668.97;;;20.04;47.10
29909;BME280;36247;51.952;6.146;2023-05-03T12:23:36;102681.72;;;18.89;48.19
29909;BME280;36247;51.952;6.146;2023-05-03T12:26:02;102672.94;;;18.21;45.69
29909;BME280;36247;51.952;6.146;2023-05-03T12:28:28;102675.91;;;19.54;47.03
29909;BME280;36247;51.952;6.146;2023-05-03T12:30:53;102656.56;;;20.51;49.43
29909;BME280;36247;51.952;6.146;2023-05-03T12:33:19;102662.56;;;19.74;41.01
29909;BME280;36247;51.952;6.146;2023-05-03T12:35:46;102656.50;;;20.31;40.12
29909;BME280;36247;51.952;6.146;2023-05-03T12:38:11;102654.41;;;19.59;42.15
29909;BME280;36247;51.952;6.146;2023-05-03T12:40:37;102652.84;;;20.12;43.47
29909;BME280;36247;51.952;6.146;2023-05-03T12:43:06;102651.97;;;20.10;45.84
29909;BME280;36247;51.952;6.146;2023-05-03T12:45:31;102630.47;;;20.21;42.25
29909;BME280;36247;51.952;6.146;2023-05-03T12:47:57;102640.94;;;19.48;41.03
29909;BME280;36247;51.952;6.146;2023-05-03T12:50:23;102623.31;;;20.46;45.51
29909;BME280;36247;51.952;6.146;2023-05-03T12:52:49;102626.06;;;20.94;42.85
29909;BME280;36247;51.952;6.146;2023-05-03T12:55:15;102625.19;;;20.83;48.97
29909;BME280;36247;51.952;6.146;2023-05-03T12:57:40;102620.69;;;20.86;40.35
29909;BME280;36247;51.952;6.146;2023-05-03T13:00:07;102624.09;;;19.89;43.05
29909;BME280;36247;51.952;6.146;2023-05-03T13:02:34;102608.81;;;21.75;47.59
29909;BME280;36247;51.952;6.146;2023-05-03T13:04:59;102608.47;;;22.31;45.29
29909;BME280;36247;51.952;6.146;2023-05-03T13:07:28;102609.91;;;20.92;40.65
29909;BME280;36247;51.952;6.146;2023-05-03T13:09:54;102617.94;;;20.29;43.11